createdAt,value
2022-08-25T02:14:59.005Z,18.63
2022-08-25T02:46:49.735Z,18.49
2022-08-25T03:13:20.300Z,18.33
2022-08-25T03:20:50.783Z,18.28
2022-08-25T05:02:28.199Z,18.66
2022-08-25T05:43:16.747Z,21.12
2022-08-25T06:13:26.918Z,22.60
2022-08-25T06:48:17.586Z,24.85
2022-08-25T07:11:16.220Z,24.75
2022-08-25T07:36:20.899Z,25.96
2022-08-25T07:38:55.377Z,26.12
2022-08-25T07:41:26.933Z,26.28
2022-08-25T07:43:58.387Z,26.56
2022-08-25T07:46:28.731Z,26.90
2022-08-25T07:48:59.405Z,27.32
2022-08-25T07:51:30.383Z,27.39
2022-08-25T07:54:01.828Z,27.51
2022-08-25T07:56:31.961Z,27.66
2022-08-25T07:59:00.958Z,27.77
2022-08-25T08:01:31.579Z,27.90
2022-08-25T08:04:23.788Z,28.03
2022-08-25T08:06:53.208Z,28.16
2022-08-25T08:09:23.795Z,28.36
2022-08-25T08:11:54.453Z,28.48
2022-08-25T08:14:29.678Z,28.65
2022-08-25T08:16:58.725Z,29.01
2022-08-25T08:19:27.577Z,29.33
2022-08-25T08:21:55.874Z,29.47
2022-08-25T08:24:44.904Z,29.49
2022-08-25T08:27:25.224Z,29.52
2022-08-25T08:29:54.002Z,29.47
2022-08-25T08:32:31.453Z,29.51
2022-08-25T08:35:14.271Z,29.52
2022-08-25T08:37:42.695Z,29.43
2022-08-25T08:40:11.165Z,29.40
2022-08-25T08:42:47.243Z,29.34
2022-08-25T08:45:35.481Z,29.26
2022-08-25T08:48:34.258Z,29.18
2022-08-25T08:51:23.052Z,29.08
2022-08-25T08:54:07.038Z,28.99
2022-08-25T08:56:49.139Z,28.93
2022-08-25T08:59:19.765Z,28.87
2022-08-25T09:01:56.760Z,28.82
2022-08-25T09:04:35.455Z,28.80
2022-08-25T09:07:12.678Z,28.79
2022-08-25T09:09:47.632Z,28.82
2022-08-25T09:12:17.224Z,28.82
2022-08-25T09:15:17.484Z,28.77
2022-08-25T09:18:24.430Z,28.74
2022-08-25T09:21:34.361Z,28.74
2022-08-25T09:24:05.948Z,28.80
2022-08-25T09:26:49.623Z,28.87
2022-08-25T09:29:22.726Z,28.95
2022-08-25T09:31:59.997Z,29.06
2022-08-25T09:34:34.278Z,29.17
2022-08-25T09:37:04.973Z,29.31
2022-08-25T09:39:34.457Z,29.47
2022-08-25T09:42:06.101Z,29.61
2022-08-25T09:44:46.194Z,29.74
2022-08-25T09:47:31.734Z,29.90
2022-08-25T09:50:05.388Z,30.02
2022-08-25T09:52:44.295Z,30.12
2022-08-25T09:55:17.978Z,30.25
2022-08-25T09:57:49.608Z,30.39
2022-08-25T10:00:24.967Z,30.51
2022-08-25T10:03:08.159Z,30.56
2022-08-25T10:06:06.201Z,30.66
2022-08-25T10:08:41.918Z,30.71
2022-08-25T10:11:17.280Z,30.91
2022-08-25T10:14:02.510Z,31.01
2022-08-25T10:16:34.948Z,31.08
2022-08-25T10:19:13.069Z,31.30
2022-08-25T10:21:42.135Z,31.51
2022-08-25T10:24:12.161Z,31.81
2022-08-25T10:26:45.576Z,31.98
2022-08-25T10:29:32.662Z,32.27
2022-08-25T10:32:32.131Z,32.50
2022-08-25T10:35:21.334Z,32.87
2022-08-25T10:38:07.317Z,33.39
2022-08-25T10:40:59.123Z,33.91
2022-08-25T10:43:40.521Z,34.53
2022-08-25T10:46:28.762Z,35.24
2022-08-25T10:49:09.737Z,35.81
2022-08-25T10:51:50.858Z,36.29
2022-08-25T10:54:28.458Z,36.49
2022-08-25T10:57:02.922Z,36.56
2022-08-25T10:59:52.540Z,36.67
2022-08-25T11:02:38.526Z,36.91
2022-08-25T11:05:24.313Z,37.18
2022-08-25T11:08:11.557Z,37.22
2022-08-25T11:10:48.021Z,37.32
2022-08-25T11:13:23.544Z,37.41
2022-08-25T11:16:19.906Z,37.47
2022-08-25T11:18:59.890Z,37.41
2022-08-25T11:22:10.650Z,37.55
2022-08-25T11:28:33.617Z,37.61
2022-08-25T11:31:08.698Z,37.69
2022-08-25T11:33:40.192Z,37.83
2022-08-25T11:36:41.015Z,37.92
2022-08-25T11:39:35.848Z,38.11
2022-08-25T11:42:22.794Z,38.15
2022-08-25T11:45:28.617Z,38.04
2022-08-25T11:47:57.903Z,37.72
2022-08-25T11:50:59.929Z,37.54
2022-08-25T11:53:30.344Z,37.49
2022-08-25T11:56:04.610Z,37.30
2022-08-25T11:58:38.623Z,37.14
2022-08-25T12:04:45.205Z,36.88
2022-08-25T12:07:27.527Z,37.03
2022-08-25T12:10:11.007Z,36.94
2022-08-25T12:12:47.111Z,36.89
2022-08-25T12:15:17.127Z,36.88
2022-08-25T12:18:09.068Z,36.73
2022-08-25T12:21:16.148Z,36.66
2022-08-25T12:24:07.588Z,36.09
2022-08-25T12:26:49.955Z,35.97
2022-08-25T12:29:30.186Z,36.04
2022-08-25T12:32:05.274Z,36.02
2022-08-25T12:34:40.049Z,35.85
2022-08-25T12:37:18.906Z,35.65
2022-08-25T12:39:59.414Z,35.60
2022-08-25T12:42:38.431Z,35.55
2022-08-25T12:45:13.114Z,35.46
2022-08-25T12:47:47.768Z,35.39
2022-08-25T12:50:28.407Z,35.29
2022-08-25T12:53:21.104Z,35.07
2022-08-25T12:55:57.783Z,34.98
2022-08-25T12:58:58.863Z,34.91
2022-08-25T13:01:47.389Z,34.84
2022-08-25T13:04:20.878Z,34.90
2022-08-25T13:06:50.127Z,34.87
2022-08-25T13:09:19.249Z,34.86
2022-08-25T13:12:31.028Z,34.81
2022-08-25T13:15:07.515Z,34.78
2022-08-25T13:18:36.164Z,34.71
2022-08-25T13:21:22.509Z,34.68
2022-08-25T13:24:01.301Z,34.67
2022-08-25T13:26:39.564Z,34.56
2022-08-25T13:29:57.195Z,34.42
2022-08-25T13:32:44.365Z,34.32
2022-08-25T13:35:17.626Z,34.31
2022-08-25T13:37:48.415Z,34.22
2022-08-25T13:40:47.275Z,34.09
2022-08-25T13:43:15.920Z,33.93
2022-08-25T13:45:46.290Z,33.83
2022-08-25T13:48:49.465Z,33.76
2022-08-25T13:51:24.221Z,33.66
2022-08-25T13:54:06.185Z,33.64
2022-08-25T13:56:57.124Z,33.54
2022-08-25T13:59:31.598Z,33.38
2022-08-25T14:02:08.435Z,33.30
2022-08-25T14:04:55.075Z,33.16
2022-08-25T14:07:33.763Z,33.10
2022-08-25T14:10:11.610Z,33.01
2022-08-25T14:12:45.629Z,32.89
2022-08-25T14:15:26.604Z,32.77
2022-08-25T14:18:20.988Z,32.66
2022-08-25T14:20:57.736Z,32.50
2022-08-25T14:23:27.618Z,32.45
2022-08-25T14:25:56.739Z,32.33
2022-08-25T14:28:26.773Z,32.26
2022-08-25T14:30:58.981Z,32.21
2022-08-25T14:33:30.469Z,32.09
2022-08-25T14:36:06.238Z,32.00
2022-08-25T14:38:44.149Z,31.92
2022-08-25T14:41:19.270Z,31.86
2022-08-25T14:44:03.524Z,31.81
2022-08-25T14:46:51.774Z,31.75
2022-08-25T14:49:28.361Z,31.68
2022-08-25T14:52:05.019Z,31.62
2022-08-25T14:54:43.639Z,31.56
2022-08-25T14:57:27.596Z,31.52
2022-08-25T15:00:10.132Z,31.46
2022-08-25T15:02:42.916Z,31.36
2022-08-25T15:05:14.800Z,31.28
2022-08-25T15:08:36.049Z,31.21
2022-08-25T15:11:30.925Z,31.12
2022-08-25T15:14:02.871Z,31.04
2022-08-25T15:16:36.721Z,30.99
2022-08-25T15:19:07.585Z,30.92
2022-08-25T15:21:37.594Z,30.86
2022-08-25T15:24:17.458Z,30.78
2022-08-25T15:26:59.755Z,30.71
2022-08-25T15:29:36.738Z,30.67
2022-08-25T15:32:13.187Z,30.64
2022-08-25T15:34:49.995Z,30.60
2022-08-25T15:37:25.041Z,30.53
2022-08-25T15:39:56.819Z,30.44
2022-08-25T15:42:26.305Z,30.33
2022-08-25T15:44:57.165Z,30.24
2022-08-25T15:47:25.466Z,30.16
2022-08-25T15:50:01.799Z,30.08
2022-08-25T15:52:44.429Z,30.00
2022-08-25T15:55:20.470Z,29.91
2022-08-25T15:58:12.287Z,29.82
2022-08-25T16:00:45.776Z,29.73
2022-08-25T16:03:35.571Z,29.65
2022-08-25T16:06:05.876Z,29.55
2022-08-25T16:08:35.336Z,29.43
2022-08-25T16:11:10.574Z,29.33
2022-08-25T16:13:59.887Z,29.19
2022-08-25T16:16:32.195Z,29.09
2022-08-25T16:19:01.624Z,28.99
2022-08-25T16:21:36.822Z,28.88
2022-08-25T16:24:11.704Z,28.75
2022-08-25T16:26:48.253Z,28.63
2022-08-25T16:29:19.980Z,28.49
2022-08-25T16:31:54.900Z,28.34
2022-08-25T16:34:39.444Z,28.18
2022-08-25T16:37:09.249Z,28.03
2022-08-25T16:39:48.064Z,27.90
2022-08-25T16:42:23.377Z,27.76
2022-08-25T16:44:53.936Z,27.62
2022-08-25T16:47:27.058Z,27.50
2022-08-25T16:49:57.510Z,27.37
2022-08-25T16:52:44.739Z,27.24
2022-08-25T16:55:19.198Z,27.09
2022-08-25T16:57:58.335Z,26.96
2022-08-25T17:00:28.304Z,26.82
2022-08-25T17:03:02.513Z,26.71
2022-08-25T17:05:31.192Z,26.57
2022-08-25T17:08:18.650Z,26.43
2022-08-25T17:10:48.633Z,26.27
2022-08-25T17:13:20.283Z,26.11
2022-08-25T17:15:52.758Z,25.96
2022-08-25T17:18:21.343Z,25.82
2022-08-25T17:20:57.725Z,25.66
2022-08-25T17:23:26.801Z,25.49
2022-08-25T17:26:06.584Z,25.34
2022-08-25T17:28:35.917Z,25.20
2022-08-25T17:31:05.015Z,25.08
2022-08-25T17:33:33.295Z,24.95
2022-08-25T17:36:01.332Z,24.82
2022-08-25T17:38:30.386Z,24.70
2022-08-25T17:41:03.712Z,24.59
2022-08-25T17:43:37.473Z,24.49
2022-08-25T17:46:06.294Z,24.38
2022-08-25T17:48:38.212Z,24.29
2022-08-25T17:51:12.110Z,24.19
2022-08-25T17:53:40.082Z,24.09
2022-08-25T17:56:15.875Z,24.00
2022-08-25T17:58:44.708Z,23.89
2022-08-25T18:01:30.778Z,23.76
2022-08-25T18:03:59.400Z,23.63
2022-08-25T18:06:30.302Z,23.52
2022-08-25T18:09:02.570Z,23.44
2022-08-25T18:11:31.543Z,23.36
2022-08-25T18:14:00.607Z,23.29
2022-08-25T18:16:30.754Z,23.23
2022-08-25T18:18:59.965Z,23.17
2022-08-25T18:21:30.977Z,23.11
2022-08-25T18:23:59.374Z,23.02
2022-08-25T18:26:28.070Z,22.92
2022-08-25T18:29:00.551Z,22.81
2022-08-25T18:31:28.660Z,22.71
2022-08-25T18:33:56.941Z,22.63
2022-08-25T18:36:25.684Z,22.54
2022-08-25T18:39:14.885Z,22.44
2022-08-25T18:41:45.352Z,22.34
2022-08-25T18:44:15.680Z,22.25
2022-08-25T18:46:49.674Z,22.17
2022-08-25T18:49:18.506Z,22.09
2022-08-25T18:51:48.741Z,22.00
2022-08-25T18:54:23.669Z,21.93
2022-08-25T18:56:57.208Z,21.85
2022-08-25T18:59:27.938Z,21.78
2022-08-25T19:01:58.391Z,21.72
2022-08-25T19:04:38.764Z,21.67
2022-08-25T19:07:10.187Z,21.63
2022-08-25T19:09:39.060Z,21.60
2022-08-25T19:12:07.296Z,21.55
2022-08-25T19:14:40.589Z,21.50
2022-08-25T19:17:09.433Z,21.45
2022-08-25T19:19:37.609Z,21.39
2022-08-25T19:22:10.698Z,21.32
2022-08-25T19:25:01.661Z,21.26
2022-08-25T19:27:31.065Z,21.20
2022-08-25T19:30:02.921Z,21.13
2022-08-25T19:32:35.356Z,21.04
2022-08-25T19:35:10.263Z,20.96
2022-08-25T19:37:38.600Z,20.89
2022-08-25T19:40:09.637Z,20.84
2022-08-25T19:42:40.704Z,20.80
2022-08-25T19:45:10.895Z,20.76
2022-08-25T19:47:41.508Z,20.73
2022-08-25T19:50:11.428Z,20.71
2022-08-25T19:52:46.139Z,20.69
2022-08-25T19:55:21.240Z,20.67
2022-08-25T19:57:58.040Z,20.68
2022-08-25T20:00:29.589Z,20.70
2022-08-25T20:03:01.061Z,20.72
2022-08-25T20:05:32.280Z,20.72
2022-08-25T20:08:02.592Z,20.71
2022-08-25T20:10:39.051Z,20.71
2022-08-25T20:13:15.871Z,20.70
2022-08-25T20:15:46.922Z,20.69
2022-08-25T20:18:17.339Z,20.67
2022-08-25T20:20:49.966Z,20.65
2022-08-25T20:23:43.045Z,20.62
2022-08-25T20:26:15.375Z,20.61
2022-08-25T20:28:45.608Z,20.59
2022-08-25T20:31:13.648Z,20.57
2022-08-25T20:33:46.530Z,20.56
2022-08-25T20:36:22.011Z,20.52
2022-08-25T20:38:52.593Z,20.50
2022-08-25T20:41:26.147Z,20.47
2022-08-25T20:43:57.874Z,20.46
2022-08-25T20:46:27.999Z,20.45
2022-08-25T20:49:03.513Z,20.45
2022-08-25T20:51:31.863Z,20.45
2022-08-25T20:54:25.932Z,20.44
2022-08-25T20:56:58.982Z,20.45
2022-08-25T20:59:30.058Z,20.45
2022-08-25T21:02:28.420Z,20.44
2022-08-25T21:05:26.174Z,20.41
2022-08-25T21:07:55.535Z,20.39
2022-08-25T21:10:31.158Z,20.37
2022-08-25T21:13:10.179Z,20.32
2022-08-25T21:15:49.963Z,20.27
2022-08-25T21:18:31.546Z,20.21
2022-08-25T21:21:22.253Z,20.15
2022-08-25T21:23:56.793Z,20.09
2022-08-25T21:26:31.883Z,20.03
2022-08-25T21:29:07.837Z,19.98
2022-08-25T21:31:43.947Z,19.92
2022-08-25T21:34:17.317Z,19.87
2022-08-25T21:36:47.434Z,19.82
2022-08-25T21:39:16.255Z,19.86
2022-08-25T21:41:47.080Z,19.86
2022-08-25T21:44:20.474Z,19.88
2022-08-25T21:46:54.798Z,19.91
2022-08-25T21:49:30.125Z,19.95
2022-08-25T21:52:06.573Z,19.97
2022-08-25T21:54:38.856Z,19.97
2022-08-25T21:57:07.938Z,19.95
2022-08-25T21:59:37.586Z,19.93
2022-08-25T22:02:10.247Z,19.91
2022-08-25T22:04:39.607Z,19.88
2022-08-25T22:07:08.517Z,19.87
2022-08-25T22:09:37.205Z,19.85
2022-08-25T22:12:14.218Z,19.81
2022-08-25T22:14:46.649Z,19.79
2022-08-25T22:17:20.944Z,19.78
2022-08-25T22:19:54.581Z,19.78
2022-08-25T22:22:25.601Z,19.76
2022-08-25T22:24:53.691Z,19.76
2022-08-25T22:27:28.488Z,19.78
2022-08-25T22:29:58.444Z,19.75
2022-08-25T22:32:26.515Z,19.71
2022-08-25T22:34:57.904Z,19.68
2022-08-25T22:37:30.378Z,19.63
2022-08-25T22:39:59.943Z,19.55
2022-08-25T22:42:35.464Z,19.49
2022-08-25T22:45:09.742Z,19.45
2022-08-25T22:47:47.001Z,19.41
2022-08-25T22:50:18.541Z,19.33
2022-08-25T22:52:47.511Z,19.28
2022-08-25T22:55:17.458Z,19.22
2022-08-25T22:57:54.789Z,19.21
2022-08-25T23:00:23.076Z,19.17
2022-08-25T23:02:58.247Z,19.17
2022-08-25T23:05:30.500Z,19.17
2022-08-25T23:08:00.026Z,19.18
2022-08-25T23:10:28.101Z,19.16
2022-08-25T23:13:03.539Z,19.15
2022-08-25T23:15:44.192Z,19.14
2022-08-25T23:18:14.088Z,19.10
2022-08-25T23:21:01.394Z,19.07
2022-08-25T23:23:30.138Z,19.07
2022-08-25T23:25:58.256Z,19.02
2022-08-25T23:28:30.788Z,19.01
2022-08-25T23:30:59.886Z,18.99
2022-08-25T23:33:38.047Z,18.97
2022-08-25T23:36:11.785Z,18.95
2022-08-25T23:38:51.501Z,18.93
2022-08-25T23:41:30.277Z,18.91
2022-08-25T23:43:58.432Z,18.88
2022-08-25T23:46:29.204Z,18.82
2022-08-25T23:49:01.874Z,18.77
2022-08-25T23:51:38.902Z,18.71
2022-08-25T23:54:09.280Z,18.67
2022-08-25T23:56:42.515Z,18.59
2022-08-25T23:59:18.358Z,18.51
